Latest Weather Observations for Badgerys Creek

IDN60901

Issued at 2:15 pm EST Wednesday 24 September 2014 (issued every 10 minutes, with the page automatically refreshed every 10 minutes)

About weather observations | Map of Sydney area stations | Latest observations for Sydney area | Other Formats
Station Details ID: 067108 Name: BADGERYS CREEK AWS Lat: -33.90 Lon: 150.73 Height: 81.2 m
Data from the previous 72 hours. | See also: Recent months at Badgerys Creek
Date/Time
EST
Tmp

°C
App
Tmp
°C
Dew
Point
°C
Rel
Hum
%
Delta-T

°C
Wind Press
QNH
hPa
Press
MSL
hPa
Rain
since
9 am
mm
Dir
 
Spd
km/h
Gust
km/h
Spd
kts
Gust
kts
24/02:00pm 24.4 23.3 10.7 42 7.6 NE 7 15 4 8 1017.0 1017.0 0.0
24/01:30pm 24.4 23.7 11.4 44 7.3 ENE 6 11 3 6 1017.7 1017.6 0.0
24/01:00pm 24.3 23.4 10.6 42 7.6 NE 6 9 3 5 1018.4 1018.3 0.0
24/12:30pm 23.9 23.6 11.6 46 6.9 NE 4 7 2 4 1019.1 1019.0 0.0
24/12:00pm 22.7 22.6 12.0 50 6.0 N 4 7 2 4 1019.6 1019.5 0.0
24/11:30am 21.1 20.3 11.7 55 5.3 NNE 7 11 4 6 1020.3 1020.2 0.0
24/11:00am 20.6 20.6 12.3 59 4.7 NNW 4 9 2 5 1020.9 1020.8 0.0
24/10:30am 19.1 18.6 11.9 63 4.0 N 6 7 3 4 1021.5 1021.4 0.0
24/10:00am 18.2 18.0 11.7 66 3.6 N 4 7 2 4 1022.0 1021.9 0.0
24/09:30am 17.2 16.7 12.1 72 2.8 NNE 6 9 3 5 1022.4 1022.3 0.0
24/09:00am 16.1 16.3 11.9 76 2.3 W 2 6 1 3 1022.9 1022.8 0.0
24/08:30am 14.6 14.5 12.1 85 1.4 W 4 6 2 3 1023.1 1023.0 0.0
24/08:00am 13.0 13.6 13.0 100 0.0 W 2 7 1 4 1023.4 1023.3 0.0
24/07:30am 10.8 11.1 10.8 100 0.0 CALM 0 0 0 0 1023.4 1023.3 0.0
24/07:00am 9.4 9.3 9.4 100 0.0 CALM 0 0 0 0 1023.4 1023.3 0.0
24/06:30am 8.4 8.0 8.4 100 0.0 SW 0 0 0 0 1023.4 1023.3 0.0
24/06:00am 7.8 6.5 7.8 100 0.0 SW 4 4 2 2 1023.3 1023.2 0.0
24/05:30am 7.9 6.3 7.9 100 0.0 WSW 6 7 3 4 1023.2 1023.1 0.0
24/05:00am 7.6 5.7 7.6 100 0.0 WSW 7 7 4 4 1023.1 1023.0 0.0
24/04:30am 8.1 6.5 8.1 100 0.0 WSW 6 7 3 4 1023.0 1022.9 0.0
24/04:00am 7.6 5.9 7.6 100 0.0 WSW 6 6 3 3 1023.4 1023.3 0.0
24/03:30am 8.0 6.2 8.0 100 0.0 SW 7 7 4 4 1023.3 1023.2 0.0
24/03:00am 8.7 7.3 8.7 100 0.0 SW 6 7 3 4 1023.5 1023.4 0.0
24/02:30am 8.8 7.4 8.8 100 0.0 WSW 6 6 3 3 1023.9 1023.8 0.0
24/02:00am 9.5 8.1 9.5 100 0.0 WSW 7 9 4 5 1024.0 1023.9 0.0
24/01:30am 9.4 8.0 9.4 100 0.0 WSW 7 9 4 5 1024.3 1024.2 0.0
24/01:00am 9.3 8.0 9.3 100 0.0 E 6 7 3 4 1024.8 1024.8 0.0
24/12:30am 9.2 7.9 9.2 100 0.0 E 6 7 3 4 1025.1 1025.1 0.0
24/12:00am 9.4 8.1 9.3 99 0.0 E 6 6 3 3 1025.3 1025.3 0.0
 
Date/Time
EST
Tmp

°C
App
Tmp
°C
Dew
Point
°C
Rel
Hum
%
Delta-T

°C
Wind Press
QNH
hPa
Press
MSL
hPa
Rain
since
9 am
mm
Dir
 
Spd
km/h
Gust
km/h
Spd
kts
Gust
kts
23/11:30pm 9.9 9.1 9.8 99 0.1 E 4 6 2 3 1025.6 1025.6 0.0
23/11:00pm 9.9 8.7 9.6 98 0.1 E 6 6 3 3 1025.9 1025.9 0.0
23/10:30pm 11.0 11.2 10.7 98 0.2 CALM 0 0 0 0 1026.1 1026.1 0.0
23/10:00pm 11.5 11.7 10.4 93 0.6 CALM 0 0 0 0 1026.3 1026.3 0.0
23/09:30pm 11.4 10.8 10.3 93 0.6 E 4 4 2 2 1026.5 1026.5 0.0
23/09:00pm 12.3 12.0 10.2 87 1.1 E 2 4 1 2 1026.5 1026.5 0.0
23/08:30pm 12.8 11.7 10.0 83 1.4 E 6 6 3 3 1026.4 1026.4 0.0
23/08:00pm 13.7 13.4 10.1 79 1.9 ENE 2 4 1 2 1026.7 1026.7 0.0
23/07:30pm 15.2 14.7 10.6 74 2.4 NE 4 6 2 3 1026.6 1026.6 0.0
23/07:00pm 15.4 14.2 10.4 72 2.6 ENE 7 11 4 6 1026.2 1026.2 0.0
23/06:30pm 16.8 14.1 10.4 66 3.4 ENE 15 24 8 13 1025.5 1025.5 0.0
23/06:00pm 17.4 15.0 10.1 62 3.9 ENE 13 19 7 10 1025.2 1025.2 0.0
23/05:30pm 19.0 16.6 10.0 56 4.8 E 13 19 7 10 1024.9 1024.9 0.0
23/05:00pm 20.3 17.4 9.8 51 5.6 E 15 24 8 13 1024.8 1024.8 0.0
23/04:30pm 21.2 18.0 9.8 48 6.2 ENE 17 22 9 12 1024.7 1024.7 0.0
23/04:00pm 22.1 18.5 9.9 46 6.6 E 19 22 10 12 1024.5 1024.4 0.0
23/03:30pm 22.6 20.4 6.4 35 8.3 NNE 7 15 4 8 1025.0 1025.0 0.0
23/03:00pm 22.7 19.7 6.0 34 8.4 NE 11 17 6 9 1025.1 1025.1 0.0
23/02:30pm 22.1 19.3 5.1 33 8.5 NE 9 17 5 9 1025.4 1025.4 0.0
23/02:00pm 22.1 18.7 1.7 26 9.5 NNE 9 19 5 10 1025.7 1025.7 0.0
23/01:30pm 21.8 19.1 3.5 30 8.8 NE 7 13 4 7 1026.1 1026.1 0.0
23/01:00pm 21.8 19.0 5.3 34 8.2 NE 9 19 5 10 1026.6 1026.6 0.0
23/12:30pm 20.9 18.4 4.5 34 8.0 NE 7 17 4 9 1027.2 1027.2 0.0
23/12:00pm 20.8 18.3 6.4 39 7.2 NNE 9 19 5 10 1027.5 1027.5 0.0
23/11:30am 20.5 18.7 7.8 44 6.6 NNE 7 13 4 7 1028.0 1028.0 0.0
23/11:00am 19.0 16.2 7.1 46 6.0 NNE 11 17 6 9 1028.5 1028.5 0.0
23/10:30am 18.6 16.7 7.7 49 5.6 NNE 7 17 4 9 1029.1 1029.1 0.0
23/10:00am 17.7 16.2 9.3 58 4.4 N 7 13 4 7 1029.5 1029.5 0.0
23/09:30am 16.5 15.8 10.1 66 3.4 NE 4 6 2 3 1029.9 1029.9 0.0
23/09:00am 15.0 14.7 10.2 73 2.5 S 2 4 1 2 1030.3 1030.2 0.0
23/08:30am 13.3 13.2 10.7 84 1.4 NNE 2 4 1 2 1030.4 1030.3 0.0
23/08:00am 11.5 11.5 11.2 98 0.2 NNE 2 4 1 2 1030.5 1030.4 0.0
23/07:30am 9.3 8.4 9.3 100 0.0 NNE 4 4 2 2 1030.5 1030.4 0.0
23/07:00am 7.8 6.5 7.8 100 0.0 NNE 4 7 2 4 1030.6 1030.5 0.0
23/06:30am 6.9 5.4 6.9 100 0.0 NNE 4 6 2 3 1030.3 1030.2 0.0
23/06:00am 5.7 4.0 5.7 100 0.0 NNE 4 4 2 2 1030.0 1030.0 0.0
23/05:30am 5.8 4.5 5.8 100 0.0 NNE 2 4 1 2 1029.7 1029.7 0.0
23/05:00am 6.3 4.3 6.3 100 0.0 NNE 6 7 3 4 1029.6 1029.6 0.0
23/04:30am 6.3 4.1 6.2 99 0.0 NNE 7 9 4 5 1029.6 1029.6 0.0
23/04:00am 6.3 4.7 6.2 99 0.0 NNE 4 4 2 2 1029.3 1029.3 0.0
23/03:30am 6.9 5.4 6.8 99 0.0 NNE 4 4 2 2 1029.1 1029.1 0.0
23/03:00am 7.4 5.6 7.3 99 0.0 NNE 6 6 3 3 1029.1 1029.1 0.0
23/02:30am 7.2 5.2 7.1 99 0.0 NNE 7 7 4 4 1029.2 1029.2 0.0
23/02:00am 7.8 6.5 7.7 99 0.0 NNE 4 6 2 3 1029.3 1029.3 0.0
23/01:30am 8.8 7.4 8.7 99 0.0 NNE 6 7 3 4 1029.5 1029.5 0.0
23/01:00am 8.4 6.9 8.3 99 0.0 NNE 6 7 3 4 1029.7 1029.7 0.0
23/12:30am 9.2 7.9 9.1 99 0.0 NNE 6 7 3 4 1029.8 1029.8 0.0
23/12:00am 8.7 7.2 8.6 99 0.0 NNE 6 7 3 4 1030.0 1030.0 0.0
 
Date/Time
EST
Tmp

°C
App
Tmp
°C
Dew
Point
°C
Rel
Hum
%
Delta-T

°C
Wind Press
QNH
hPa
Press
MSL
hPa
Rain
since
9 am
mm
Dir
 
Spd
km/h
Gust
km/h
Spd
kts
Gust
kts
22/11:30pm 9.2 8.2 8.9 98 0.1 NE 4 4 2 2 1030.1 1030.1 0.0
22/11:00pm 8.9 7.7 8.1 95 0.4 NE 4 6 2 3 1030.3 1030.2 0.0
22/10:30pm 9.7 8.6 8.6 93 0.5 NE 4 4 2 2 1030.4 1030.3 0.0
22/10:00pm 10.1 9.1 8.7 91 0.7 NE 4 4 2 2 1030.5 1030.4 0.0
22/09:30pm 11.0 10.3 8.4 84 1.3 NNE 2 2 1 1 1030.5 1030.4 0.0
22/09:00pm 11.6 11.3 8.5 81 1.5 CALM 0 0 0 0 1030.5 1030.4 0.0
22/08:30pm 12.9 11.8 8.4 74 2.2 NNE 4 4 2 2 1030.3 1030.2 0.0
22/08:00pm 14.0 12.9 8.6 70 2.7 NNE 4 6 2 3 1030.3 1030.2 0.0
22/07:30pm 14.2 13.1 8.6 69 2.8 NE 4 6 2 3 1029.9 1029.9 0.0
22/07:00pm 14.7 13.2 8.4 66 3.2 NE 6 7 3 4 1029.5 1029.5 0.0
22/06:30pm 15.3 13.3 8.5 64 3.5 ENE 9 11 5 6 1029.0 1029.0 0.0
22/06:00pm 16.0 14.0 8.7 62 3.7 ENE 9 13 5 7 1028.5 1028.5 0.0
22/05:30pm 17.5 14.7 8.6 56 4.6 ENE 13 19 7 10 1028.2 1028.2 0.0
22/05:00pm 18.5 15.4 9.0 54 4.9 E 15 20 8 11 1027.9 1027.9 0.0
22/04:30pm 19.4 15.6 9.0 51 5.5 E 19 24 10 13 1027.8 1027.8 0.0
22/04:00pm 21.1 18.6 6.6 39 7.3 ENE 9 17 5 9 1027.7 1027.7 0.0
22/03:30pm 20.9 18.7 5.3 36 7.7 NE 6 11 3 6 1027.8 1027.8 0.0
22/03:00pm 21.1 18.9 5.5 36 7.7 N 6 13 3 7 1028.0 1028.0 0.0
22/02:30pm 20.7 18.1 6.3 39 7.3 N 9 20 5 11 1028.0 1028.0 0.0
22/02:00pm 20.8 18.7 6.0 38 7.4 E 6 13 3 7 1028.3 1028.3 0.0
22/01:30pm 20.1 17.6 6.5 41 6.9 N 9 19 5 10 1028.6 1028.6 0.0
22/01:00pm 20.3 18.3 6.3 40 7.0 NNW 6 15 3 8 1029.2 1029.2 0.0
22/12:30pm 19.9 18.0 6.6 42 6.7 E 6 11 3 6 1029.7 1029.7 0.0
22/12:00pm 19.3 17.2 6.8 44 6.3 NNE 7 13 4 7 1030.5 1030.4 0.0
22/11:30am 19.2 17.3 7.6 47 5.9 NNE 7 15 4 8 1031.0 1030.9 0.0
22/11:00am 18.7 17.4 7.8 49 5.5 N 4 9 2 5 1031.5 1031.4 0.0
22/10:30am 17.9 16.8 10.0 60 4.2 S 6 9 3 5 1031.9 1031.8 0.0
22/10:00am 16.6 15.9 8.6 59 4.1 NE 2 4 1 2 1032.2 1032.1 0.0
22/09:30am 16.8 15.4 8.8 59 4.1 N 6 9 3 5 1032.3 1032.2 0.0
22/09:00am 17.6 17.1 10.9 65 3.6 E 4 9 2 5 1032.3 1032.2 0.0
22/08:30am 15.6 14.8 9.5 67 3.2 SE 4 9 2 5 1032.3 1032.2 0.0
22/08:00am 14.4 13.8 10.4 77 2.1 S 4 7 2 4 1032.1 1032.0 0.0
22/07:30am 12.7 12.2 10.8 88 1.0 S 4 7 2 4 1032.0 1031.9 0.0
22/07:00am 11.1 10.9 10.5 96 0.3 S 2 4 1 2 1031.7 1031.6 0.0
22/06:30am 10.9 10.3 10.4 97 0.3 S 4 4 2 2 1031.5 1031.4 0.0
22/06:00am 9.9 8.8 9.8 99 0.0 S 6 7 3 4 1031.0 1030.9 0.0
22/05:30am 9.7 8.2 9.2 97 0.2 S 7 7 4 4 1030.6 1030.5 0.0
22/05:00am 10.1 9.3 9.5 96 0.3 S 4 6 2 3 1030.3 1030.2 0.0
22/04:30am 10.3 9.5 9.8 97 0.3 S 4 6 2 3 1029.9 1029.9 0.0
22/04:00am 10.4 9.3 9.9 97 0.3 S 6 7 3 4 1029.9 1029.9 0.0
22/03:30am 10.3 9.2 10.1 99 0.1 S 6 7 3 4 1029.7 1029.7 0.0
22/03:00am 9.9 8.7 9.6 98 0.1 S 6 7 3 4 1029.7 1029.7 0.0
22/02:30am 9.8 8.5 9.2 96 0.3 S 6 7 3 4 1029.8 1029.8 0.0
22/02:00am 9.9 8.4 9.1 95 0.4 S 7 7 4 4 1029.9 1029.9 0.0
22/01:30am 10.1 8.6 9.2 94 0.4 S 7 9 4 5 1030.0 1030.0 0.0
22/01:00am 10.7 9.3 9.5 92 0.6 S 7 7 4 4 1030.4 1030.3 0.0
22/12:30am 10.9 10.0 9.3 90 0.8 S 4 6 2 3 1030.7 1030.6 0.0
22/12:00am 11.1 10.1 8.8 86 1.1 S 4 4 2 2 1030.8 1030.7 0.0
 
Date/Time
EST
Tmp

°C
App
Tmp
°C
Dew
Point
°C
Rel
Hum
%
Delta-T

°C
Wind Press
QNH
hPa
Press
MSL
hPa
Rain
since
9 am
mm
Dir
 
Spd
km/h
Gust
km/h
Spd
kts
Gust
kts
21/11:30pm 11.3 10.3 8.9 85 1.2 S 4 6 2 3 1030.8 1030.7 0.0
21/11:00pm 11.5 10.2 9.2 86 1.1 S 6 7 3 4 1030.8 1030.7 0.0
21/10:30pm 12.0 10.6 9.0 82 1.5 S 6 7 3 4 1031.1 1031.0 0.0
21/10:00pm 13.0 11.8 9.6 80 1.7 S 6 7 3 4 1031.3 1031.2 0.0
21/09:30pm 13.3 12.2 9.9 80 1.8 S 6 7 3 4 1031.4 1031.3 0.0
21/09:00pm 13.0 12.0 10.2 83 1.4 S 6 7 3 4 1031.3 1031.2 0.0
21/08:30pm 12.6 11.4 9.6 82 1.5 S 6 6 3 3 1031.1 1031.0 0.0
21/08:00pm 12.4 11.4 8.9 79 1.7 S 4 4 2 2 1030.9 1030.8 0.0
21/07:30pm 12.8 11.7 8.5 75 2.1 S 4 4 2 2 1030.3 1030.2 0.0
21/07:00pm 13.5 12.8 8.4 71 2.5 SSE 2 4 1 2 1029.5 1029.5 0.0
21/06:30pm 14.0 12.0 8.6 70 2.7 SE 9 13 5 7 1028.7 1028.7 0.0
21/06:00pm 15.0 11.8 8.3 64 3.4 SE 15 22 8 12 1028.1 1028.1 0.0
21/05:30pm 15.9 12.4 8.6 62 3.7 ESE 17 24 9 13 1027.5 1027.5 0.0
21/05:00pm 17.0 13.1 8.7 58 4.3 ESE 19 26 10 14 1026.9 1026.9 0.0
21/04:30pm 18.2 14.1 8.7 54 4.9 E 20 28 11 15 1026.6 1026.6 0.0
21/04:00pm 19.9 17.4 8.3 47 6.0 E 11 20 6 11 1026.4 1026.4 0.0
21/03:30pm 20.6 19.0 6.5 40 7.1 NE 4 7 2 4 1026.5 1026.5 0.0
21/03:00pm 20.3 18.3 7.0 42 6.7 N 7 15 4 8 1026.5 1026.5 0.0
21/02:30pm 20.0 17.5 6.7 42 6.7 N 9 15 5 8 1026.9 1026.9 0.0

Latest Capital City Observations: Canberra | Sydney | Melbourne | Brisbane | Adelaide | Perth | Hobart | Darwin

Other Formats:

Comma delimited format used in spreadsheet applications
http://www.bom.gov.au/fwo/IDN60901/IDN60901.94752.axf

JavaScript Object Notation format (JSON) in row-major order
http://www.bom.gov.au/fwo/IDN60901/IDN60901.94752.json